createdAt,value
2023-02-09T00:00:02.742Z,6.14
2023-02-09T00:02:40.682Z,6.11
2023-02-09T00:05:08.876Z,6.09
2023-02-09T00:07:36.375Z,6.11
2023-02-09T00:10:05.379Z,6.08
2023-02-09T00:12:50.861Z,6.07
2023-02-09T00:15:17.845Z,6.08
2023-02-09T00:17:44.757Z,6.07
2023-02-09T00:20:12.003Z,6.08
2023-02-09T00:22:38.831Z,6.09
2023-02-09T00:25:06.088Z,6.09
2023-02-09T00:27:35.778Z,6.10
2023-02-09T00:30:04.824Z,6.06
2023-02-09T00:32:32.837Z,6.07
2023-02-09T00:35:00.044Z,6.09
2023-02-09T00:37:28.339Z,6.07
2023-02-09T00:39:55.330Z,6.07
2023-02-09T00:42:22.239Z,6.02
2023-02-09T00:44:50.017Z,5.98
2023-02-09T00:47:17.052Z,5.97
2023-02-09T00:49:44.084Z,6.00
2023-02-09T00:52:11.150Z,5.99
2023-02-09T00:54:38.223Z,5.99
2023-02-09T00:57:05.603Z,6.00
2023-02-09T00:59:35.252Z,5.98
2023-02-09T01:02:02.873Z,5.97
2023-02-09T01:04:29.978Z,5.97
2023-02-09T01:06:57.221Z,5.96
2023-02-09T01:09:24.810Z,5.93
2023-02-09T01:11:52.509Z,5.95
2023-02-09T01:14:19.717Z,5.95
2023-02-09T01:16:47.086Z,5.93
2023-02-09T01:19:14.534Z,5.90
2023-02-09T01:21:42.335Z,5.87
2023-02-09T01:24:13.310Z,5.91
2023-02-09T01:26:41.226Z,5.90
2023-02-09T01:29:08.504Z,5.90
2023-02-09T01:31:36.124Z,5.85
2023-02-09T01:34:04.466Z,5.86
2023-02-09T01:36:32.366Z,5.86
2023-02-09T01:39:02.316Z,5.86
2023-02-09T01:41:29.832Z,5.86
2023-02-09T01:44:12.014Z,5.85
2023-02-09T01:46:39.587Z,5.85
2023-02-09T01:49:34.460Z,5.83
2023-02-09T01:52:07.096Z,5.85
2023-02-09T01:54:51.535Z,5.82
2023-02-09T01:57:27.650Z,5.83
2023-02-09T02:00:11.720Z,5.82
2023-02-09T02:02:44.573Z,5.82
2023-02-09T02:05:11.981Z,5.81
2023-02-09T02:07:45.071Z,5.84
2023-02-09T02:10:12.131Z,5.80
2023-02-09T02:12:39.688Z,5.80
2023-02-09T02:15:09.254Z,5.80
2023-02-09T02:17:52.127Z,5.79
2023-02-09T02:20:37.813Z,5.78
2023-02-09T02:23:22.739Z,5.75
2023-02-09T02:26:08.444Z,5.76
2023-02-09T02:28:38.286Z,5.74
2023-02-09T02:31:33.588Z,5.74
2023-02-09T02:34:15.576Z,5.74
2023-02-09T02:37:13.450Z,5.71
2023-02-09T02:39:58.932Z,5.71
2023-02-09T02:42:49.401Z,5.71
2023-02-09T02:45:40.568Z,5.71
2023-02-09T02:48:37.653Z,5.69
2023-02-09T02:51:10.591Z,5.70
2023-02-09T02:53:42.298Z,5.70
2023-02-09T02:56:15.453Z,5.69
2023-02-09T02:58:46.428Z,5.69
2023-02-09T03:01:17.605Z,5.70
2023-02-09T03:03:47.298Z,5.66
2023-02-09T03:06:15.164Z,5.66
2023-02-09T03:08:56.714Z,5.66
2023-02-09T03:11:29.631Z,5.67
2023-02-09T03:14:12.845Z,5.67
2023-02-09T03:16:50.058Z,5.64
2023-02-09T03:19:33.787Z,5.66
2023-02-09T03:22:10.853Z,5.65
2023-02-09T03:25:22.866Z,5.66
2023-02-09T03:28:01.475Z,5.64
2023-02-09T03:30:28.950Z,5.63
2023-02-09T03:32:56.427Z,5.60
2023-02-09T03:35:27.378Z,5.57
2023-02-09T03:37:54.265Z,5.57
2023-02-09T03:40:21.265Z,5.57
2023-02-09T03:42:49.613Z,5.53
2023-02-09T03:45:16.575Z,5.53
2023-02-09T03:47:43.493Z,5.54
2023-02-09T03:50:10.664Z,5.56
2023-02-09T03:52:37.589Z,5.52
2023-02-09T03:55:05.418Z,5.54
2023-02-09T03:57:32.482Z,5.51
2023-02-09T04:00:01.231Z,5.52
2023-02-09T04:02:39.328Z,5.51
2023-02-09T04:05:06.745Z,5.52
2023-02-09T04:07:33.674Z,5.52
2023-02-09T04:10:00.626Z,5.52
2023-02-09T04:12:27.499Z,5.54
2023-02-09T04:14:54.410Z,5.53
2023-02-09T04:17:21.368Z,5.50
2023-02-09T04:19:48.199Z,5.49
2023-02-09T04:22:15.033Z,5.52
2023-02-09T04:24:44.220Z,5.50
2023-02-09T04:27:11.035Z,5.50
2023-02-09T04:29:38.019Z,5.47
2023-02-09T04:32:05.346Z,5.49
2023-02-09T04:34:32.341Z,5.46
2023-02-09T04:36:59.108Z,5.43
2023-02-09T04:39:26.108Z,5.47
2023-02-09T04:41:52.857Z,5.46
2023-02-09T04:44:19.863Z,5.41
2023-02-09T04:46:46.638Z,5.41
2023-02-09T04:49:14.622Z,5.40
2023-02-09T04:51:41.481Z,5.38
2023-02-09T04:54:08.494Z,5.35
2023-02-09T04:56:35.372Z,5.37
2023-02-09T04:59:20.611Z,5.35
2023-02-09T05:01:47.659Z,5.36
2023-02-09T05:04:14.549Z,5.35
2023-02-09T05:06:41.467Z,5.33
2023-02-09T05:09:08.287Z,5.33
2023-02-09T05:11:35.137Z,5.35
2023-02-09T05:14:01.982Z,5.32
2023-02-09T05:16:29.069Z,5.31
2023-02-09T05:18:55.966Z,5.31
2023-02-09T05:21:22.940Z,5.31
2023-02-09T05:23:49.759Z,5.32
2023-02-09T05:26:16.765Z,5.33
2023-02-09T05:28:43.598Z,5.35
2023-02-09T05:31:10.715Z,5.34
2023-02-09T05:33:37.541Z,5.36
2023-02-09T05:36:09.840Z,5.32
2023-02-09T05:38:37.005Z,5.32
2023-02-09T05:41:08.446Z,5.32
2023-02-09T05:43:36.283Z,5.28
2023-02-09T05:46:03.409Z,5.30
2023-02-09T05:48:30.610Z,5.25
2023-02-09T05:50:57.404Z,5.26
2023-02-09T05:53:24.351Z,5.26
2023-02-09T05:55:51.194Z,5.24
2023-02-09T05:58:18.096Z,5.22
2023-02-09T06:00:45.317Z,5.22
2023-02-09T06:03:12.576Z,5.19
2023-02-09T06:05:39.421Z,5.18
2023-02-09T06:08:06.448Z,5.17
2023-02-09T06:10:33.324Z,5.16
2023-02-09T06:13:00.222Z,5.13
2023-02-09T06:15:27.132Z,5.16
2023-02-09T06:17:53.933Z,5.16
2023-02-09T06:20:20.948Z,5.15
2023-02-09T06:22:47.887Z,5.13
2023-02-09T06:25:14.846Z,5.11
2023-02-09T06:27:41.880Z,5.13
2023-02-09T06:30:09.434Z,5.12
2023-02-09T06:32:36.543Z,5.11
2023-02-09T06:35:03.432Z,5.10
2023-02-09T06:37:30.550Z,5.11
2023-02-09T06:39:57.364Z,5.12
2023-02-09T06:42:24.287Z,5.10
2023-02-09T06:44:51.267Z,5.10
2023-02-09T06:47:18.255Z,5.10
2023-02-09T06:49:45.036Z,5.09
2023-02-09T06:52:12.160Z,5.08
2023-02-09T06:54:38.959Z,5.07
2023-02-09T06:57:05.954Z,5.07
2023-02-09T06:59:32.787Z,5.06
2023-02-09T07:01:59.919Z,5.05
2023-02-09T07:04:26.869Z,5.07
2023-02-09T07:06:53.822Z,5.05
2023-02-09T07:09:20.673Z,5.08
2023-02-09T07:11:49.034Z,5.04
2023-02-09T07:14:15.891Z,5.05
2023-02-09T07:16:42.820Z,5.06
2023-02-09T07:19:09.672Z,5.08
2023-02-09T07:21:36.806Z,5.07
2023-02-09T07:24:03.933Z,5.07
2023-02-09T07:26:30.975Z,5.02
2023-02-09T07:28:57.752Z,5.01
2023-02-09T07:31:27.260Z,5.00
2023-02-09T07:33:54.463Z,5.02
2023-02-09T07:36:21.489Z,4.97
2023-02-09T07:38:48.599Z,4.97
2023-02-09T07:41:18.356Z,4.98
2023-02-09T07:43:45.598Z,4.96
2023-02-09T07:46:15.621Z,4.96
2023-02-09T07:48:42.635Z,4.96
2023-02-09T07:51:19.859Z,4.95
2023-02-09T07:53:48.051Z,4.95
2023-02-09T07:56:14.939Z,4.94
2023-02-09T07:58:42.174Z,4.93
2023-02-09T08:01:11.615Z,4.94
2023-02-09T08:03:40.878Z,4.94
2023-02-09T08:06:43.269Z,4.90
2023-02-09T08:09:12.711Z,4.83
2023-02-09T08:11:45.803Z,4.90
2023-02-09T08:14:29.949Z,4.90
2023-02-09T08:17:20.423Z,4.92
2023-02-09T08:19:52.145Z,4.93
2023-02-09T08:22:19.951Z,4.91
2023-02-09T08:24:46.960Z,4.92
2023-02-09T08:27:14.002Z,4.92
2023-02-09T08:29:41.236Z,4.93
2023-02-09T08:32:08.325Z,4.92
2023-02-09T08:34:35.186Z,4.91
2023-02-09T08:37:02.209Z,4.94
2023-02-09T08:39:29.085Z,4.91
2023-02-09T08:41:55.985Z,4.93
2023-02-09T08:44:26.835Z,4.94
2023-02-09T08:46:54.157Z,4.93
2023-02-09T08:49:21.096Z,4.94
2023-02-09T08:51:48.060Z,4.93
2023-02-09T08:54:15.936Z,4.92
2023-02-09T08:56:44.192Z,4.93
2023-02-09T08:59:11.215Z,4.93
2023-02-09T09:01:40.505Z,4.97
2023-02-09T09:04:07.680Z,4.96
2023-02-09T09:06:34.774Z,4.97
2023-02-09T09:09:01.808Z,4.98
2023-02-09T09:11:29.867Z,4.98
2023-02-09T09:13:58.074Z,4.97
2023-02-09T09:16:25.035Z,5.00
2023-02-09T09:18:51.928Z,5.03
2023-02-09T09:21:19.333Z,5.02
2023-02-09T09:23:47.481Z,5.03
2023-02-09T09:26:16.084Z,5.04
2023-02-09T09:28:43.444Z,5.06
2023-02-09T09:31:13.375Z,5.05
2023-02-09T09:33:41.812Z,5.07
2023-02-09T09:36:10.541Z,5.08
2023-02-09T09:38:39.272Z,5.11
2023-02-09T09:41:17.951Z,5.10
2023-02-09T09:43:44.978Z,5.11
2023-02-09T09:46:17.489Z,5.16
2023-02-09T09:48:47.670Z,5.17
2023-02-09T09:51:23.619Z,5.18
2023-02-09T09:53:53.435Z,5.18
2023-02-09T09:56:26.797Z,5.19
2023-02-09T09:58:54.210Z,5.20
2023-02-09T10:01:24.003Z,5.23
2023-02-09T10:03:51.013Z,5.25
2023-02-09T10:06:22.706Z,5.26
2023-02-09T10:09:15.687Z,5.28
2023-02-09T10:12:02.726Z,5.28
2023-02-09T10:14:29.725Z,5.30
2023-02-09T10:16:56.606Z,5.32
2023-02-09T10:19:26.439Z,5.33
2023-02-09T10:21:54.295Z,5.36
2023-02-09T10:24:21.164Z,5.37
2023-02-09T10:27:08.226Z,5.38
2023-02-09T10:29:36.566Z,5.36
2023-02-09T10:32:19.247Z,5.38
2023-02-09T10:34:52.290Z,5.40
2023-02-09T10:37:37.681Z,5.39
2023-02-09T10:40:15.261Z,5.41
2023-02-09T10:42:52.111Z,5.39
2023-02-09T10:45:29.890Z,5.40
2023-02-09T10:48:08.388Z,5.41
2023-02-09T10:50:59.099Z,5.42
2023-02-09T10:53:32.342Z,5.43
2023-02-09T10:56:18.017Z,5.47
2023-02-09T10:59:00.521Z,5.49
2023-02-09T11:01:32.101Z,5.48
2023-02-09T11:04:04.071Z,5.50
2023-02-09T11:06:43.998Z,5.52
2023-02-09T11:09:24.343Z,5.54
2023-02-09T11:11:52.074Z,5.53
2023-02-09T11:14:20.286Z,5.54
2023-02-09T11:17:16.721Z,5.57
2023-02-09T11:20:05.350Z,5.60
2023-02-09T11:23:00.086Z,5.62
2023-02-09T11:25:42.578Z,5.64
2023-02-09T11:28:18.362Z,5.66
2023-02-09T11:31:00.641Z,5.66
2023-02-09T11:33:47.516Z,5.67
2023-02-09T11:36:44.965Z,5.71
2023-02-09T11:39:17.434Z,5.74
2023-02-09T11:42:14.042Z,5.76
2023-02-09T11:44:55.468Z,5.77
2023-02-09T11:47:52.413Z,5.81
2023-02-09T11:50:35.784Z,5.82
2023-02-09T11:53:10.979Z,5.82
2023-02-09T11:56:01.885Z,5.81
2023-02-09T11:58:44.339Z,5.83
2023-02-09T12:01:30.101Z,5.84
2023-02-09T12:04:13.346Z,5.84
2023-02-09T12:06:44.693Z,5.89
2023-02-09T12:09:37.769Z,5.90
2023-02-09T12:12:18.182Z,5.92
2023-02-09T12:14:53.795Z,5.92
2023-02-09T12:17:28.915Z,5.92
2023-02-09T12:20:02.055Z,5.94
2023-02-09T12:22:35.111Z,5.95
2023-02-09T12:25:38.770Z,5.96
2023-02-09T12:28:08.723Z,5.97
2023-02-09T12:30:45.367Z,5.97
2023-02-09T12:33:25.207Z,5.97
2023-02-09T12:36:09.239Z,6.00
2023-02-09T12:38:56.571Z,6.06
2023-02-09T12:41:45.824Z,6.09
2023-02-09T12:44:13.300Z,6.13
2023-02-09T12:46:48.740Z,6.14
2023-02-09T12:49:19.991Z,6.15
2023-02-09T12:51:50.207Z,6.15
2023-02-09T12:54:38.854Z,6.14
2023-02-09T12:57:15.012Z,6.15
2023-02-09T12:59:53.729Z,6.16
2023-02-09T13:02:27.427Z,6.17
2023-02-09T13:05:16.417Z,6.15
2023-02-09T13:07:56.677Z,6.16
2023-02-09T13:10:44.002Z,6.17
2023-02-09T13:13:11.037Z,6.19
2023-02-09T13:15:53.128Z,6.22
2023-02-09T13:18:33.429Z,6.24
2023-02-09T13:21:35.531Z,6.23
2023-02-09T13:24:18.725Z,6.21
2023-02-09T13:26:54.820Z,6.23
2023-02-09T13:29:24.330Z,6.22
2023-02-09T13:32:20.815Z,6.23
2023-02-09T13:35:09.830Z,6.25
2023-02-09T13:37:45.859Z,6.28
2023-02-09T13:40:21.570Z,6.29
2023-02-09T13:43:06.978Z,6.30
2023-02-09T13:45:33.918Z,6.29
2023-02-09T13:48:02.877Z,6.29
2023-02-09T13:50:30.539Z,6.34
2023-02-09T13:53:11.362Z,6.31
2023-02-09T13:55:45.350Z,6.33
2023-02-09T13:58:22.535Z,6.35
2023-02-09T14:01:07.914Z,6.36
2023-02-09T14:03:57.810Z,6.34
2023-02-09T14:06:42.185Z,6.33
2023-02-09T14:09:18.104Z,6.33
2023-02-09T14:11:53.439Z,6.36
2023-02-09T14:14:23.707Z,6.40
2023-02-09T14:17:22.941Z,6.40
2023-02-09T14:19:52.545Z,6.37
2023-02-09T14:22:40.216Z,6.41
2023-02-09T14:25:13.076Z,6.42
2023-02-09T14:27:41.295Z,6.39
2023-02-09T14:30:26.647Z,6.41
2023-02-09T14:32:56.632Z,6.38
2023-02-09T14:35:28.833Z,6.39
2023-02-09T14:38:01.483Z,6.43
2023-02-09T14:40:30.940Z,6.43
2023-02-09T14:43:00.471Z,6.45
2023-02-09T14:45:27.320Z,6.44
2023-02-09T14:47:54.135Z,6.44
2023-02-09T14:50:26.422Z,6.45
2023-02-09T14:53:06.994Z,6.44
2023-02-09T14:55:40.422Z,6.43
2023-02-09T14:58:22.798Z,6.44
2023-02-09T15:00:51.202Z,6.43
2023-02-09T15:03:18.092Z,6.45
2023-02-09T15:05:46.695Z,6.45
2023-02-09T15:08:17.858Z,6.43
2023-02-09T15:10:48.718Z,6.44
2023-02-09T15:13:15.971Z,6.49
2023-02-09T15:15:43.487Z,6.48
2023-02-09T15:18:24.965Z,6.49
2023-02-09T15:20:52.653Z,6.49
2023-02-09T15:23:19.622Z,6.50
2023-02-09T15:25:47.205Z,6.48
2023-02-09T15:28:28.483Z,6.48
2023-02-09T15:30:56.900Z,6.48
2023-02-09T15:33:26.606Z,6.49
2023-02-09T15:35:53.676Z,6.51
2023-02-09T15:38:21.065Z,6.52
2023-02-09T15:41:08.235Z,6.53
2023-02-09T15:43:54.134Z,6.56
2023-02-09T15:46:40.180Z,6.57
2023-02-09T15:49:07.719Z,6.60
2023-02-09T15:51:38.130Z,6.59
2023-02-09T15:54:16.888Z,6.60
2023-02-09T15:56:43.944Z,6.60
2023-02-09T15:59:19.863Z,6.61
2023-02-09T16:01:47.536Z,6.61
2023-02-09T16:04:15.086Z,6.64
2023-02-09T16:06:53.677Z,6.61
2023-02-09T16:09:29.451Z,6.60
2023-02-09T16:11:56.904Z,6.61
2023-02-09T16:14:25.996Z,6.64
2023-02-09T16:16:53.302Z,6.64
2023-02-09T16:19:21.479Z,6.64
2023-02-09T16:21:57.469Z,6.61
2023-02-09T16:24:44.147Z,6.61
2023-02-09T16:27:16.373Z,6.64
2023-02-09T16:29:43.415Z,6.64
2023-02-09T16:32:18.647Z,6.65
2023-02-09T16:34:46.099Z,6.64
2023-02-09T16:37:17.640Z,6.66
2023-02-09T16:39:45.847Z,6.66
2023-02-09T16:42:14.797Z,6.66
2023-02-09T16:44:42.597Z,6.63
2023-02-09T16:47:31.422Z,6.63
2023-02-09T16:50:01.605Z,6.65
2023-02-09T16:52:30.860Z,6.63
2023-02-09T16:55:00.239Z,6.60
2023-02-09T16:57:28.517Z,6.57
2023-02-09T16:59:55.537Z,6.56
2023-02-09T17:02:42.174Z,6.57
2023-02-09T17:05:25.827Z,6.58
2023-02-09T17:07:59.796Z,6.59
2023-02-09T17:10:30.321Z,6.74
2023-02-09T17:12:58.258Z,6.66
2023-02-09T17:15:31.047Z,6.65
2023-02-09T17:18:06.148Z,6.68
2023-02-09T17:20:40.179Z,6.65
2023-02-09T17:23:07.214Z,6.63
2023-02-09T17:25:34.196Z,6.63
2023-02-09T17:28:01.307Z,6.63
2023-02-09T17:30:28.246Z,6.64
2023-02-09T17:33:01.126Z,6.66
2023-02-09T17:35:52.938Z,6.66
2023-02-09T17:38:23.106Z,6.66
2023-02-09T17:40:51.250Z,6.68
2023-02-09T17:43:18.210Z,6.67
2023-02-09T17:45:49.416Z,6.67
2023-02-09T17:48:20.556Z,6.67
2023-02-09T17:50:49.181Z,6.71
2023-02-09T17:53:17.556Z,6.68
2023-02-09T17:55:45.210Z,6.68
2023-02-09T17:58:14.046Z,6.67
2023-02-09T18:00:42.264Z,6.69
2023-02-09T18:03:17.680Z,6.68
2023-02-09T18:05:48.900Z,6.69
2023-02-09T18:08:15.993Z,6.71
2023-02-09T18:10:42.923Z,6.72
2023-02-09T18:13:16.384Z,6.71
2023-02-09T18:15:43.555Z,6.72
2023-02-09T18:18:10.598Z,6.74
2023-02-09T18:20:37.544Z,6.72
2023-02-09T18:23:04.874Z,6.74
2023-02-09T18:25:35.437Z,6.74
2023-02-09T18:28:03.658Z,6.75
2023-02-09T18:30:36.907Z,6.75
2023-02-09T18:33:04.961Z,6.76
2023-02-09T18:35:38.401Z,6.74
2023-02-09T18:38:07.797Z,6.75
2023-02-09T18:40:35.840Z,6.78
2023-02-09T18:43:04.757Z,6.78
2023-02-09T18:45:32.422Z,6.76
2023-02-09T18:47:59.855Z,6.80
2023-02-09T18:50:30.472Z,6.78
2023-02-09T18:53:02.487Z,6.76
2023-02-09T18:55:34.059Z,6.76
2023-02-09T18:58:03.109Z,6.73
2023-02-09T19:00:30.490Z,6.73
2023-02-09T19:02:58.536Z,6.72
2023-02-09T19:05:32.274Z,6.72
2023-02-09T19:07:59.816Z,6.73
2023-02-09T19:10:27.195Z,6.73
2023-02-09T19:12:55.544Z,6.72
2023-02-09T19:15:25.710Z,6.72
2023-02-09T19:17:54.480Z,6.71
2023-02-09T19:20:26.599Z,6.72
2023-02-09T19:22:54.250Z,6.70
2023-02-09T19:25:23.448Z,6.69
2023-02-09T19:27:50.609Z,6.70
2023-02-09T19:30:24.830Z,6.71
2023-02-09T19:32:53.667Z,6.70
2023-02-09T19:35:22.604Z,6.71
2023-02-09T19:37:57.521Z,6.70
2023-02-09T19:40:36.896Z,6.71
2023-02-09T19:43:04.930Z,6.78
2023-02-09T19:45:36.482Z,6.76
2023-02-09T19:48:05.570Z,6.74
2023-02-09T19:50:32.782Z,6.73
2023-02-09T19:52:59.642Z,6.73
2023-02-09T19:55:26.537Z,6.73
2023-02-09T19:57:53.599Z,6.72
2023-02-09T20:00:20.618Z,6.73
2023-02-09T20:02:48.718Z,6.71
2023-02-09T20:05:16.361Z,6.70
2023-02-09T20:07:43.804Z,6.70
2023-02-09T20:10:11.177Z,6.69
2023-02-09T20:12:38.238Z,6.70
2023-02-09T20:15:05.198Z,6.68
2023-02-09T20:17:32.213Z,6.69
2023-02-09T20:19:59.153Z,6.69
2023-02-09T20:22:26.234Z,6.67
2023-02-09T20:24:53.123Z,6.64
2023-02-09T20:27:19.987Z,6.63
2023-02-09T20:29:46.811Z,6.61
2023-02-09T20:32:13.792Z,6.63
2023-02-09T20:34:40.700Z,6.60
2023-02-09T20:37:07.745Z,6.63
2023-02-09T20:39:34.599Z,6.61
2023-02-09T20:42:20.136Z,6.60
2023-02-09T20:45:05.522Z,6.60
2023-02-09T20:47:32.632Z,6.61
2023-02-09T20:50:00.244Z,6.61
2023-02-09T20:52:30.889Z,6.63
2023-02-09T20:54:58.062Z,6.66
2023-02-09T20:57:29.542Z,6.64
2023-02-09T21:00:00.584Z,6.65
2023-02-09T21:02:28.068Z,6.68
2023-02-09T21:04:56.504Z,6.66
2023-02-09T21:07:25.180Z,6.67
2023-02-09T21:09:54.102Z,6.68
2023-02-09T21:12:21.513Z,6.69
2023-02-09T21:14:51.007Z,6.68
2023-02-09T21:17:21.390Z,6.67
2023-02-09T21:19:48.577Z,6.67
2023-02-09T21:22:16.474Z,6.67
2023-02-09T21:24:43.618Z,6.69
2023-02-09T21:27:10.548Z,6.68
2023-02-09T21:29:37.602Z,6.67
2023-02-09T21:32:06.698Z,6.67
2023-02-09T21:34:33.694Z,6.67
2023-02-09T21:37:00.776Z,6.65
2023-02-09T21:39:27.841Z,6.64
2023-02-09T21:42:13.132Z,6.60
2023-02-09T21:44:40.102Z,6.60
2023-02-09T21:47:07.354Z,6.59
2023-02-09T21:49:34.416Z,6.61
2023-02-09T21:52:01.239Z,6.72
2023-02-09T21:54:33.244Z,6.85
2023-02-09T21:57:03.906Z,6.83
2023-02-09T21:59:31.037Z,6.79
2023-02-09T22:01:57.920Z,6.74
2023-02-09T22:04:25.870Z,6.72
2023-02-09T22:06:52.786Z,6.70
2023-02-09T22:09:20.503Z,6.69
2023-02-09T22:11:47.394Z,6.69
2023-02-09T22:14:14.678Z,6.67
2023-02-09T22:16:42.480Z,6.66
2023-02-09T22:19:09.787Z,6.67
2023-02-09T22:21:36.651Z,6.66
2023-02-09T22:24:03.848Z,6.67
2023-02-09T22:26:30.717Z,6.67
2023-02-09T22:28:57.999Z,6.67
2023-02-09T22:31:24.931Z,6.67
2023-02-09T22:33:54.137Z,6.66
2023-02-09T22:36:21.991Z,6.68
2023-02-09T22:38:49.127Z,6.68
2023-02-09T22:41:22.021Z,6.67
2023-02-09T22:43:51.781Z,6.67
2023-02-09T22:46:20.447Z,6.70
2023-02-09T22:48:55.414Z,6.68
2023-02-09T22:51:24.105Z,6.69
2023-02-09T22:53:51.413Z,6.69
2023-02-09T22:56:18.579Z,6.68
2023-02-09T22:58:45.495Z,6.69
2023-02-09T23:01:12.783Z,6.68
2023-02-09T23:03:40.481Z,6.69
2023-02-09T23:06:09.568Z,6.69
2023-02-09T23:08:36.447Z,6.70
2023-02-09T23:11:05.183Z,6.68
2023-02-09T23:13:33.211Z,6.68
2023-02-09T23:16:18.189Z,6.67
2023-02-09T23:18:48.669Z,6.66
2023-02-09T23:21:16.944Z,6.68
2023-02-09T23:23:45.275Z,6.67
2023-02-09T23:26:13.507Z,6.66
2023-02-09T23:28:40.437Z,6.66
2023-02-09T23:31:10.638Z,6.67
2023-02-09T23:33:38.050Z,6.68
2023-02-09T23:36:10.221Z,6.67
2023-02-09T23:38:37.327Z,6.67
2023-02-09T23:41:09.105Z,6.68
2023-02-09T23:43:36.139Z,6.66
2023-02-09T23:46:05.056Z,6.66
2023-02-09T23:48:32.888Z,6.66
2023-02-09T23:51:07.861Z,6.66
2023-02-09T23:53:35.319Z,6.67
2023-02-09T23:56:05.223Z,6.68
2023-02-09T23:58:38.294Z,6.67
